Alexandria, Louisiana
Current Conditions -  °F | °C
As of 7:53 AM on Saturday 20 Dec 2014 (Local Time) from KAEX Reporting Station
Overcast Overcast  
Wind Chill: 42°   Ceiling: 800
Heat Index: 47°   Visibility: 10mi
Dew Point: 44°   Wind: 10mph
Humidity: 90%   Direction: 10°N
Pressure: 30.19"   Gusts: NA
Location:  31.31°N, 92.44°W
Report Text: KAEX 201353Z 01009KT 10SM OVC008 08/07 A3019 RMK AO2 RAB1255E06B42E52 SLP229 P0000 T00830067
Loading
Personal Weather Stations






























Interactive Weather Map New forecast layout! Learn more

10-Day Weather Forecast

Advertisements
Track Severe Weather on mobile